sensor_id;sensor_type;location;lat;lon;timestamp;pressure;altitude;pressure_sealevel;temperature;humidity
6668;BME280;3370;47.712;9.082;2023-02-22T00:01:34;96963.72;;;3.17;87.13
6668;BME280;3370;47.712;9.082;2023-02-22T00:04:05;96970.50;;;3.15;89.31
6668;BME280;3370;47.712;9.082;2023-02-22T00:06:31;96963.66;;;3.19;90.28
6668;BME280;3370;47.712;9.082;2023-02-22T00:08:58;96969.13;;;3.45;87.55
6668;BME280;3370;47.712;9.082;2023-02-22T00:11:25;96976.13;;;3.34;88.35
6668;BME280;3370;47.712;9.082;2023-02-22T00:13:51;96971.84;;;3.36;88.10
6668;BME280;3370;47.712;9.082;2023-02-22T00:16:20;96971.84;;;3.36;88.53
6668;BME280;3370;47.712;9.082;2023-02-22T00:18:46;96965.59;;;3.54;86.31
6668;BME280;3370;47.712;9.082;2023-02-22T00:21:14;96977.78;;;3.35;87.00
6668;BME280;3370;47.712;9.082;2023-02-22T00:23:44;96968.63;;;3.26;87.52
6668;BME280;3370;47.712;9.082;2023-02-22T00:26:21;96965.66;;;3.03;89.36
6668;BME280;3370;47.712;9.082;2023-02-22T00:28:51;96970.34;;;3.24;88.89
6668;BME280;3370;47.712;9.082;2023-02-22T00:31:17;96973.66;;;3.28;88.55
6668;BME280;3370;47.712;9.082;2023-02-22T00:33:44;96973.00;;;3.18;88.80
6668;BME280;3370;47.712;9.082;2023-02-22T00:36:11;96962.34;;;2.98;89.87
6668;BME280;3370;47.712;9.082;2023-02-22T00:38:39;96960.00;;;2.84;91.23
6668;BME280;3370;47.712;9.082;2023-02-22T00:41:05;96965.03;;;2.88;91.32
6668;BME280;3370;47.712;9.082;2023-02-22T00:43:32;96971.44;;;3.10;87.28
6668;BME280;3370;47.712;9.082;2023-02-22T00:45:58;96967.34;;;3.01;88.05
6668;BME280;3370;47.712;9.082;2023-02-22T00:48:24;96969.41;;;2.77;90.84
6668;BME280;3370;47.712;9.082;2023-02-22T00:50:50;96968.75;;;2.64;92.10
6668;BME280;3370;47.712;9.082;2023-02-22T00:53:21;96959.19;;;2.82;92.40
6668;BME280;3370;47.712;9.082;2023-02-22T00:55:48;96965.75;;;2.95;91.06
6668;BME280;3370;47.712;9.082;2023-02-22T00:58:13;96956.59;;;2.86;90.79
6668;BME280;3370;47.712;9.082;2023-02-22T01:00:41;96962.56;;;2.82;91.02
6668;BME280;3370;47.712;9.082;2023-02-22T01:03:10;96962.31;;;2.99;89.83
6668;BME280;3370;47.712;9.082;2023-02-22T01:05:36;96962.53;;;2.85;90.12
6668;BME280;3370;47.712;9.082;2023-02-22T01:08:08;96961.00;;;2.75;90.78
6668;BME280;3370;47.712;9.082;2023-02-22T01:10:35;96955.19;;;2.68;91.48
6668;BME280;3370;47.712;9.082;2023-02-22T01:13:02;96965.25;;;2.73;91.71
6668;BME280;3370;47.712;9.082;2023-02-22T01:15:36;96954.41;;;2.65;91.63
6668;BME280;3370;47.712;9.082;2023-02-22T01:18:02;96959.31;;;2.74;90.69
6668;BME280;3370;47.712;9.082;2023-02-22T01:20:30;96957.88;;;2.58;92.19
6668;BME280;3370;47.712;9.082;2023-02-22T01:22:59;96955.56;;;2.42;93.15
6668;BME280;3370;47.712;9.082;2023-02-22T01:25:28;96961.56;;;2.35;93.83
6668;BME280;3370;47.712;9.082;2023-02-22T01:27:56;96953.16;;;2.33;94.44
6668;BME280;3370;47.712;9.082;2023-02-22T01:30:30;96948.75;;;2.44;93.16
6668;BME280;3370;47.712;9.082;2023-02-22T01:33:02;96960.72;;;2.36;92.79
6668;BME280;3370;47.712;9.082;2023-02-22T01:35:32;96954.53;;;2.56;90.12
6668;BME280;3370;47.712;9.082;2023-02-22T01:37:58;96952.19;;;2.40;90.76
6668;BME280;3370;47.712;9.082;2023-02-22T01:40:29;96947.75;;;2.55;91.26
6668;BME280;3370;47.712;9.082;2023-02-22T01:43:00;96952.94;;;2.48;91.57
6668;BME280;3370;47.712;9.082;2023-02-22T01:50:53;96930.97;;;2.44;91.56
6668;BME280;3370;47.712;9.082;2023-02-22T01:53:33;96937.63;;;2.55;91.00
6668;BME280;3370;47.712;9.082;2023-02-22T01:56:00;96935.28;;;2.39;91.83
6668;BME280;3370;47.712;9.082;2023-02-22T01:58:30;96938.84;;;2.27;91.54
6668;BME280;3370;47.712;9.082;2023-02-22T02:00:57;96934.91;;;2.06;91.44
6668;BME280;3370;47.712;9.082;2023-02-22T02:03:28;96933.94;;;2.15;91.99
6668;BME280;3370;47.712;9.082;2023-02-22T02:05:59;96932.75;;;2.39;90.77
6668;BME280;3370;47.712;9.082;2023-02-22T02:08:58;96932.81;;;2.36;90.96
6668;BME280;3370;47.712;9.082;2023-02-22T02:11:25;96926.06;;;2.34;91.26
6668;BME280;3370;47.712;9.082;2023-02-22T02:13:54;96918.41;;;2.37;91.45
6668;BME280;3370;47.712;9.082;2023-02-22T02:16:29;96919.50;;;2.19;92.17
6668;BME280;3370;47.712;9.082;2023-02-22T02:18:59;96915.22;;;2.22;92.07
6668;BME280;3370;47.712;9.082;2023-02-22T02:24:49;96909.50;;;2.09;92.38
6668;BME280;3370;47.712;9.082;2023-02-22T02:27:26;96912.97;;;2.04;93.04
6668;BME280;3370;47.712;9.082;2023-02-22T02:36:17;96907.59;;;2.24;93.56
6668;BME280;3370;47.712;9.082;2023-02-22T02:38:58;96905.47;;;1.96;93.62
6668;BME280;3370;47.712;9.082;2023-02-22T02:41:41;96906.31;;;1.95;94.69
6668;BME280;3370;47.712;9.082;2023-02-22T02:44:40;96901.38;;;1.83;94.31
6668;BME280;3370;47.712;9.082;2023-02-22T02:47:16;96897.94;;;1.88;94.44
6668;BME280;3370;47.712;9.082;2023-02-22T02:50:04;96897.22;;;1.79;94.05
6668;BME280;3370;47.712;9.082;2023-02-22T02:52:33;96893.91;;;1.72;94.85
6668;BME280;3370;47.712;9.082;2023-02-22T02:55:02;96889.59;;;1.82;94.95
6668;BME280;3370;47.712;9.082;2023-02-22T02:57:29;96899.66;;;1.85;95.05
6668;BME280;3370;47.712;9.082;2023-02-22T02:59:55;96895.47;;;1.85;95.14
6668;BME280;3370;47.712;9.082;2023-02-22T03:02:57;96897.88;;;1.95;95.19
6668;BME280;3370;47.712;9.082;2023-02-22T03:11:30;96891.44;;;1.69;97.27
6668;BME280;3370;47.712;9.082;2023-02-22T03:14:29;96891.38;;;1.73;97.06
6668;BME280;3370;47.712;9.082;2023-02-22T03:17:51;96887.97;;;1.75;96.68
6668;BME280;3370;47.712;9.082;2023-02-22T03:20:46;96889.72;;;1.69;97.46
6668;BME280;3370;47.712;9.082;2023-02-22T03:23:23;96888.81;;;1.75;96.65
6668;BME280;3370;47.712;9.082;2023-02-22T03:26:02;96890.38;;;1.87;95.90
6668;BME280;3370;47.712;9.082;2023-02-22T03:28:29;96882.84;;;1.78;95.93
6668;BME280;3370;47.712;9.082;2023-02-22T03:31:24;96880.41;;;1.71;96.30
6668;BME280;3370;47.712;9.082;2023-02-22T03:33:58;96876.28;;;1.64;96.45
6668;BME280;3370;47.712;9.082;2023-02-22T03:36:33;96878.91;;;1.58;96.49
6668;BME280;3370;47.712;9.082;2023-02-22T03:39:06;96884.50;;;1.82;95.18
6668;BME280;3370;47.712;9.082;2023-02-22T03:41:36;96875.34;;;1.70;95.45
6668;BME280;3370;47.712;9.082;2023-02-22T03:44:11;96876.22;;;1.69;95.69
6668;BME280;3370;47.712;9.082;2023-02-22T03:46:39;96878.00;;;1.62;96.46
6668;BME280;3370;47.712;9.082;2023-02-22T03:49:33;96872.31;;;1.43;96.65
6668;BME280;3370;47.712;9.082;2023-02-22T03:51:57;96891.00;;;1.34;96.55
6668;BME280;3370;47.712;9.082;2023-02-22T03:54:24;96883.44;;;1.28;96.87
6668;BME280;3370;47.712;9.082;2023-02-22T03:56:57;96884.31;;;1.29;97.10
6668;BME280;3370;47.712;9.082;2023-02-22T03:59:24;96877.56;;;1.26;96.79
6668;BME280;3370;47.712;9.082;2023-02-22T04:01:53;96876.53;;;1.43;96.21
6668;BME280;3370;47.712;9.082;2023-02-22T04:04:20;96872.09;;;1.63;95.09
6668;BME280;3370;47.712;9.082;2023-02-22T04:06:46;96871.34;;;1.52;95.18
6668;BME280;3370;47.712;9.082;2023-02-22T04:09:13;96877.44;;;1.36;95.99
6668;BME280;3370;47.712;9.082;2023-02-22T04:11:39;96883.31;;;1.41;96.46
6668;BME280;3370;47.712;9.082;2023-02-22T04:14:05;96876.47;;;1.49;95.88
6668;BME280;3370;47.712;9.082;2023-02-22T04:16:30;96880.53;;;1.62;94.92
6668;BME280;3370;47.712;9.082;2023-02-22T04:18:56;96878.06;;;1.56;94.52
6668;BME280;3370;47.712;9.082;2023-02-22T04:21:22;96884.13;;;1.43;95.13
6668;BME280;3370;47.712;9.082;2023-02-22T04:23:48;96882.53;;;1.34;95.76
6668;BME280;3370;47.712;9.082;2023-02-22T04:26:15;96878.38;;;1.28;96.01
6668;BME280;3370;47.712;9.082;2023-02-22T04:28:40;96875.91;;;1.22;96.55
6668;BME280;3370;47.712;9.082;2023-02-22T04:31:06;96885.13;;;1.29;96.41
6668;BME280;3370;47.712;9.082;2023-02-22T04:33:32;96876.91;;;1.09;95.50
6668;BME280;3370;47.712;9.082;2023-02-22T04:35:58;96877.88;;;0.97;96.11
6668;BME280;3370;47.712;9.082;2023-02-22T04:38:25;96884.63;;;0.95;96.94
6668;BME280;3370;47.712;9.082;2023-02-22T04:40:54;96880.38;;;0.99;97.15
6668;BME280;3370;47.712;9.082;2023-02-22T04:43:20;96871.81;;;1.10;96.47
6668;BME280;3370;47.712;9.082;2023-02-22T04:45:46;96879.38;;;1.13;95.31
6668;BME280;3370;47.712;9.082;2023-02-22T04:48:12;96879.47;;;1.07;95.41
6668;BME280;3370;47.712;9.082;2023-02-22T04:50:38;96883.66;;;1.07;93.57
6668;BME280;3370;47.712;9.082;2023-02-22T04:53:05;96881.31;;;0.91;94.42
6668;BME280;3370;47.712;9.082;2023-02-22T04:55:30;96885.47;;;0.95;95.46
6668;BME280;3370;47.712;9.082;2023-02-22T04:57:56;96877.84;;;1.02;95.10
6668;BME280;3370;47.712;9.082;2023-02-22T05:00:22;96878.84;;;0.85;95.96
6668;BME280;3370;47.712;9.082;2023-02-22T05:02:49;96876.41;;;0.74;96.29
6668;BME280;3370;47.712;9.082;2023-02-22T05:05:20;96871.19;;;0.87;95.14
6668;BME280;3370;47.712;9.082;2023-02-22T05:07:47;96876.34;;;0.79;95.69
6668;BME280;3370;47.712;9.082;2023-02-22T05:10:14;96879.78;;;0.72;96.07
6668;BME280;3370;47.712;9.082;2023-02-22T05:12:40;96872.19;;;0.72;96.61
6668;BME280;3370;47.712;9.082;2023-02-22T05:15:08;96869.63;;;0.75;97.04
6668;BME280;3370;47.712;9.082;2023-02-22T05:17:34;96878.94;;;0.73;98.56
6668;BME280;3370;47.712;9.082;2023-02-22T05:20:03;96867.81;;;0.91;98.44
6668;BME280;3370;47.712;9.082;2023-02-22T05:22:29;96871.88;;;1.06;97.92
6668;BME280;3370;47.712;9.082;2023-02-22T05:24:55;96872.72;;;1.03;98.14
6668;BME280;3370;47.712;9.082;2023-02-22T05:27:23;96872.69;;;1.08;98.00
6668;BME280;3370;47.712;9.082;2023-02-22T05:29:49;96873.50;;;1.13;98.06
6668;BME280;3370;47.712;9.082;2023-02-22T05:32:15;96873.38;;;1.22;97.65
6668;BME280;3370;47.712;9.082;2023-02-22T05:34:41;96870.88;;;1.18;98.03
6668;BME280;3370;47.712;9.082;2023-02-22T05:37:06;96871.66;;;1.26;97.88
6668;BME280;3370;47.712;9.082;2023-02-22T05:39:32;96870.72;;;1.36;97.57
6668;BME280;3370;47.712;9.082;2023-02-22T05:41:58;96867.59;;;1.12;97.30
6668;BME280;3370;47.712;9.082;2023-02-22T05:44:24;96868.34;;;1.19;97.89
6668;BME280;3370;47.712;9.082;2023-02-22T05:46:50;96864.88;;;1.26;97.94
6668;BME280;3370;47.712;9.082;2023-02-22T05:49:16;96862.47;;;1.17;98.31
6668;BME280;3370;47.712;9.082;2023-02-22T05:51:42;96867.53;;;1.17;98.87
6668;BME280;3370;47.712;9.082;2023-02-22T05:54:07;96866.72;;;1.12;98.89
6668;BME280;3370;47.712;9.082;2023-02-22T05:56:33;96866.72;;;1.12;98.90
6668;BME280;3370;47.712;9.082;2023-02-22T05:59:00;96866.69;;;1.18;99.32
6668;BME280;3370;47.712;9.082;2023-02-22T06:01:26;96867.34;;;1.34;98.46
6668;BME280;3370;47.712;9.082;2023-02-22T06:03:53;96866.59;;;1.24;98.72
6668;BME280;3370;47.712;9.082;2023-02-22T06:06:19;96860.63;;;1.30;99.13
6668;BME280;3370;47.712;9.082;2023-02-22T06:08:45;96859.69;;;1.39;98.73
6668;BME280;3370;47.712;9.082;2023-02-22T06:11:12;96860.41;;;1.48;96.55
6668;BME280;3370;47.712;9.082;2023-02-22T06:13:38;96858.91;;;1.33;97.39
6668;BME280;3370;47.712;9.082;2023-02-22T06:16:06;96853.00;;;1.34;98.16
6668;BME280;3370;47.712;9.082;2023-02-22T06:18:32;96860.50;;;1.42;98.50
6668;BME280;3370;47.712;9.082;2023-02-22T06:20:59;96859.72;;;1.36;99.13
6668;BME280;3370;47.712;9.082;2023-02-22T06:23:26;96870.59;;;1.45;98.76
6668;BME280;3370;47.712;9.082;2023-02-22T06:25:51;96869.75;;;1.45;97.70
6668;BME280;3370;47.712;9.082;2023-02-22T06:28:18;96878.31;;;1.36;98.59
6668;BME280;3370;47.712;9.082;2023-02-22T06:30:43;96876.47;;;1.49;97.43
6668;BME280;3370;47.712;9.082;2023-02-22T06:33:10;96880.81;;;1.38;98.50
6668;BME280;3370;47.712;9.082;2023-02-22T06:35:36;96879.94;;;1.42;99.39
6668;BME280;3370;47.712;9.082;2023-02-22T06:38:02;96884.91;;;1.49;99.51
6668;BME280;3370;47.712;9.082;2023-02-22T06:40:28;96882.34;;;1.52;100.00
6668;BME280;3370;47.712;9.082;2023-02-22T06:42:56;96890.84;;;1.47;100.00
6668;BME280;3370;47.712;9.082;2023-02-22T06:45:23;96879.78;;;1.54;100.00
6668;BME280;3370;47.712;9.082;2023-02-22T06:47:49;96888.22;;;1.56;100.00
6668;BME280;3370;47.712;9.082;2023-02-22T06:50:27;96888.94;;;1.66;99.94
6668;BME280;3370;47.712;9.082;2023-02-22T06:52:54;96893.19;;;1.65;98.65
6668;BME280;3370;47.712;9.082;2023-02-22T06:55:26;96895.72;;;1.62;99.68
6668;BME280;3370;47.712;9.082;2023-02-22T06:57:53;96893.19;;;1.62;100.00
6668;BME280;3370;47.712;9.082;2023-02-22T07:00:22;96891.56;;;1.58;100.00
6668;BME280;3370;47.712;9.082;2023-02-22T07:02:50;96892.44;;;1.54;100.00
6668;BME280;3370;47.712;9.082;2023-02-22T07:05:19;96886.53;;;1.55;100.00
6668;BME280;3370;47.712;9.082;2023-02-22T07:07:46;96888.13;;;1.64;100.00
6668;BME280;3370;47.712;9.082;2023-02-22T07:10:22;96891.44;;;1.70;100.00
6668;BME280;3370;47.712;9.082;2023-02-22T07:12:48;96888.94;;;1.66;100.00
6668;BME280;3370;47.712;9.082;2023-02-22T07:15:22;96900.44;;;1.91;100.00
6668;BME280;3370;47.712;9.082;2023-02-22T07:17:49;96902.94;;;1.93;99.65
6668;BME280;3370;47.712;9.082;2023-02-22T07:20:17;96898.84;;;1.83;100.00
6668;BME280;3370;47.712;9.082;2023-02-22T07:22:45;96902.19;;;1.85;100.00
6668;BME280;3370;47.712;9.082;2023-02-22T07:25:11;96900.28;;;2.02;100.00
6668;BME280;3370;47.712;9.082;2023-02-22T07:27:39;96897.66;;;2.08;100.00
6668;BME280;3370;47.712;9.082;2023-02-22T07:30:29;96899.19;;;2.22;100.00
6668;BME280;3370;47.712;9.082;2023-02-22T07:32:58;96901.69;;;2.23;100.00
6668;BME280;3370;47.712;9.082;2023-02-22T07:35:33;96900.84;;;2.23;100.00
6668;BME280;3370;47.712;9.082;2023-02-22T07:38:02;96905.91;;;2.23;100.00
6668;BME280;3370;47.712;9.082;2023-02-22T07:40:28;96902.28;;;2.39;100.00
6668;BME280;3370;47.712;9.082;2023-02-22T07:42:59;96901.22;;;2.56;100.00
6668;BME280;3370;47.712;9.082;2023-02-22T07:45:33;96908.88;;;2.53;100.00
6668;BME280;3370;47.712;9.082;2023-02-22T07:48:02;96904.75;;;2.45;100.00
6668;BME280;3370;47.712;9.082;2023-02-22T07:50:30;96905.72;;;2.38;100.00
6668;BME280;3370;47.712;9.082;2023-02-22T07:53:01;96903.84;;;2.49;100.00
6668;BME280;3370;47.712;9.082;2023-02-22T07:55:29;96907.22;;;2.50;100.00
6668;BME280;3370;47.712;9.082;2023-02-22T07:58:00;96900.53;;;2.44;100.00
6668;BME280;3370;47.712;9.082;2023-02-22T08:00:36;96905.72;;;2.38;100.00
6668;BME280;3370;47.712;9.082;2023-02-22T08:03:08;96903.94;;;2.43;100.00
6668;BME280;3370;47.712;9.082;2023-02-22T08:05:36;96897.03;;;2.52;100.00
6668;BME280;3370;47.712;9.082;2023-02-22T08:08:03;96891.97;;;2.52;100.00
6668;BME280;3370;47.712;9.082;2023-02-22T08:10:31;96900.34;;;2.57;100.00
6668;BME280;3370;47.712;9.082;2023-02-22T08:12:57;96900.13;;;2.72;100.00
6668;BME280;3370;47.712;9.082;2023-02-22T08:15:33;96884.81;;;2.75;100.00
6668;BME280;3370;47.712;9.082;2023-02-22T08:18:01;96891.47;;;2.82;100.00
6668;BME280;3370;47.712;9.082;2023-02-22T08:20:28;96885.28;;;2.97;100.00
6668;BME280;3370;47.712;9.082;2023-02-22T08:22:55;96894.34;;;3.12;100.00
6668;BME280;3370;47.712;9.082;2023-02-22T08:25:24;96884.97;;;3.16;100.00
6668;BME280;3370;47.712;9.082;2023-02-22T08:27:51;96883.91;;;3.26;97.99
6668;BME280;3370;47.712;9.082;2023-02-22T08:30:23;96884.69;;;3.30;97.15
6668;BME280;3370;47.712;9.082;2023-02-22T08:32:50;96880.28;;;3.39;97.72
6668;BME280;3370;47.712;9.082;2023-02-22T08:35:19;96880.16;;;3.47;96.83
6668;BME280;3370;47.712;9.082;2023-02-22T08:37:53;96886.97;;;3.45;96.95
6668;BME280;3370;47.712;9.082;2023-02-22T08:40:23;96881.66;;;3.57;98.78
6668;BME280;3370;47.712;9.082;2023-02-22T08:42:49;96885.94;;;3.54;97.26
6668;BME280;3370;47.712;9.082;2023-02-22T08:45:16;96887.41;;;3.65;96.34
6668;BME280;3370;47.712;9.082;2023-02-22T08:47:42;96881.69;;;3.54;96.80
6668;BME280;3370;47.712;9.082;2023-02-22T08:50:15;96883.91;;;3.70;97.48
6668;BME280;3370;47.712;9.082;2023-02-22T08:52:41;96878.88;;;3.68;98.32
6668;BME280;3370;47.712;9.082;2023-02-22T08:55:07;96877.03;;;3.75;98.63
6668;BME280;3370;47.712;9.082;2023-02-22T08:57:33;96877.63;;;3.86;98.03
6668;BME280;3370;47.712;9.082;2023-02-22T08:59:59;96880.88;;;3.94;97.25
6668;BME280;3370;47.712;9.082;2023-02-22T09:02:25;96876.47;;;4.02;95.93
6668;BME280;3370;47.712;9.082;2023-02-22T09:04:50;96878.03;;;4.08;96.16
6668;BME280;3370;47.712;9.082;2023-02-22T09:07:17;96877.31;;;4.01;96.26
6668;BME280;3370;47.712;9.082;2023-02-22T09:09:43;96878.16;;;4.02;98.19
6668;BME280;3370;47.712;9.082;2023-02-22T09:12:10;96884.75;;;4.11;95.73
6668;BME280;3370;47.712;9.082;2023-02-22T09:14:36;96877.59;;;4.28;96.99
6668;BME280;3370;47.712;9.082;2023-02-22T09:17:03;96879.13;;;4.35;94.95
6668;BME280;3370;47.712;9.082;2023-02-22T09:19:29;96875.47;;;4.46;94.59
6668;BME280;3370;47.712;9.082;2023-02-22T09:21:57;96872.53;;;4.63;94.71
6668;BME280;3370;47.712;9.082;2023-02-22T09:24:25;96870.75;;;4.66;94.97
6668;BME280;3370;47.712;9.082;2023-02-22T09:26:52;96870.41;;;4.80;94.46
6668;BME280;3370;47.712;9.082;2023-02-22T09:29:26;96871.88;;;4.89;93.51
6668;BME280;3370;47.712;9.082;2023-02-22T09:31:54;96859.25;;;5.18;91.53
6668;BME280;3370;47.712;9.082;2023-02-22T09:34:22;96862.72;;;5.14;90.98
6668;BME280;3370;47.712;9.082;2023-02-22T09:36:55;96863.97;;;5.32;90.92
6668;BME280;3370;47.712;9.082;2023-02-22T09:39:22;96860.66;;;5.29;90.03
6668;BME280;3370;47.712;9.082;2023-02-22T09:47:18;96857.06;;;5.36;89.57
6668;BME280;3370;47.712;9.082;2023-02-22T09:52:39;96855.81;;;5.19;88.40
6668;BME280;3370;47.712;9.082;2023-02-22T09:55:14;96856.06;;;5.10;87.92
6668;BME280;3370;47.712;9.082;2023-02-22T09:57:45;96854.22;;;5.15;87.48
6668;BME280;3370;47.712;9.082;2023-02-22T10:00:21;96845.28;;;5.32;88.80
6668;BME280;3370;47.712;9.082;2023-02-22T10:03:23;96845.81;;;5.43;87.09
6668;BME280;3370;47.712;9.082;2023-02-22T10:06:12;96846.78;;;5.69;89.44
6668;BME280;3370;47.712;9.082;2023-02-22T10:08:39;96841.50;;;5.76;89.24
6668;BME280;3370;47.712;9.082;2023-02-22T10:25:26;96838.72;;;6.67;82.84
6668;BME280;3370;47.712;9.082;2023-02-22T10:27:58;96825.00;;;6.70;82.84
6668;BME280;3370;47.712;9.082;2023-02-22T10:30:35;96825.81;;;6.70;83.62
6668;BME280;3370;47.712;9.082;2023-02-22T10:33:16;96827.81;;;6.62;83.04
6668;BME280;3370;47.712;9.082;2023-02-22T10:35:44;96822.16;;;6.78;83.88
6668;BME280;3370;47.712;9.082;2023-02-22T10:38:27;96824.28;;;6.65;82.92
6668;BME280;3370;47.712;9.082;2023-02-22T10:41:22;96821.44;;;6.99;85.09
6668;BME280;3370;47.712;9.082;2023-02-22T10:43:51;96816.63;;;7.15;81.16
6668;BME280;3370;47.712;9.082;2023-02-22T10:46:20;96809.00;;;7.14;80.57
6668;BME280;3370;47.712;9.082;2023-02-22T10:48:51;96810.66;;;7.40;79.60
6668;BME280;3370;47.712;9.082;2023-02-22T10:51:19;96814.47;;;7.52;77.94
6668;BME280;3370;47.712;9.082;2023-02-22T10:54:17;96808.19;;;7.60;76.54
6668;BME280;3370;47.712;9.082;2023-02-22T10:56:51;96810.47;;;7.68;78.96
6668;BME280;3370;47.712;9.082;2023-02-22T10:59:39;96808.34;;;7.79;78.00
6668;BME280;3370;47.712;9.082;2023-02-22T11:02:34;96797.56;;;8.15;76.47
6668;BME280;3370;47.712;9.082;2023-02-22T11:05:03;96796.00;;;8.33;76.42
6668;BME280;3370;47.712;9.082;2023-02-22T11:07:34;96794.94;;;8.39;75.11
6668;BME280;3370;47.712;9.082;2023-02-22T11:10:04;96793.97;;;8.84;74.25
6668;BME280;3370;47.712;9.082;2023-02-22T11:12:34;96787.19;;;8.83;72.48
6668;BME280;3370;47.712;9.082;2023-02-22T11:15:31;96778.34;;;8.90;71.49
6668;BME280;3370;47.712;9.082;2023-02-22T11:17:57;96775.44;;;8.98;70.20
6668;BME280;3370;47.712;9.082;2023-02-22T11:20:33;96778.56;;;9.63;70.45
6668;BME280;3370;47.712;9.082;2023-02-22T11:23:03;96768.09;;;10.58;66.39
6668;BME280;3370;47.712;9.082;2023-02-22T11:25:36;96757.91;;;11.23;62.48
6668;BME280;3370;47.712;9.082;2023-02-22T11:28:21;96754.13;;;12.26;59.07
6668;BME280;3370;47.712;9.082;2023-02-22T11:30:57;96745.25;;;12.16;57.08
6668;BME280;3370;47.712;9.082;2023-02-22T11:33:25;96746.91;;;13.06;54.91
6668;BME280;3370;47.712;9.082;2023-02-22T11:36:01;96748.97;;;14.13;49.73
6668;BME280;3370;47.712;9.082;2023-02-22T11:38:35;96741.03;;;15.33;46.67
6668;BME280;3370;47.712;9.082;2023-02-22T11:41:16;96730.00;;;17.32;42.33
6668;BME280;3370;47.712;9.082;2023-02-22T11:43:45;96735.25;;;16.74;42.33
6668;BME280;3370;47.712;9.082;2023-02-22T11:46:23;96729.44;;;18.06;41.28
6668;BME280;3370;47.712;9.082;2023-02-22T11:49:00;96727.75;;;19.62;37.53
6668;BME280;3370;47.712;9.082;2023-02-22T11:54:51;96718.84;;;19.24;37.47
6668;BME280;3370;47.712;9.082;2023-02-22T12:00:32;96705.97;;;19.32;36.52
6668;BME280;3370;47.712;9.082;2023-02-22T12:03:34;96706.78;;;18.71;36.36
6668;BME280;3370;47.712;9.082;2023-02-22T12:12:06;96705.28;;;18.15;38.60
6668;BME280;3370;47.712;9.082;2023-02-22T12:17:45;96692.41;;;18.77;37.11
6668;BME280;3370;47.712;9.082;2023-02-22T12:20:26;96688.47;;;19.04;36.45
6668;BME280;3370;47.712;9.082;2023-02-22T12:23:06;96695.25;;;17.56;37.99
6668;BME280;3370;47.712;9.082;2023-02-22T12:25:52;96698.00;;;15.80;42.66
6668;BME280;3370;47.712;9.082;2023-02-22T12:28:32;96692.44;;;15.98;43.00
6668;BME280;3370;47.712;9.082;2023-02-22T12:31:27;96690.34;;;16.85;41.32
6668;BME280;3370;47.712;9.082;2023-02-22T12:37:25;96682.06;;;19.68;37.18
6668;BME280;3370;47.712;9.082;2023-02-22T12:40:02;96680.50;;;21.30;33.79
6668;BME280;3370;47.712;9.082;2023-02-22T12:48:30;96684.22;;;16.97;40.70
6668;BME280;3370;47.712;9.082;2023-02-22T12:51:31;96674.72;;;16.16;43.49
6668;BME280;3370;47.712;9.082;2023-02-22T12:54:32;96674.81;;;16.14;42.86
6668;BME280;3370;47.712;9.082;2023-02-22T13:00:16;96668.88;;;19.09;38.23
6668;BME280;3370;47.712;9.082;2023-02-22T13:03:21;96667.28;;;19.88;35.97
6668;BME280;3370;47.712;9.082;2023-02-22T13:06:04;96663.69;;;20.67;34.15
6668;BME280;3370;47.712;9.082;2023-02-22T13:08:56;96659.88;;;20.03;35.78
6668;BME280;3370;47.712;9.082;2023-02-22T13:11:48;96660.63;;;19.54;35.75
6668;BME280;3370;47.712;9.082;2023-02-22T13:20:30;96659.56;;;17.58;40.93
6668;BME280;3370;47.712;9.082;2023-02-22T13:25:50;96644.53;;;17.61;42.03
6668;BME280;3370;47.712;9.082;2023-02-22T13:31:28;96653.91;;;16.51;42.93
6668;BME280;3370;47.712;9.082;2023-02-22T13:45:37;96636.28;;;15.85;46.09
6668;BME280;3370;47.712;9.082;2023-02-22T13:48:24;96620.78;;;15.48;49.22
6668;BME280;3370;47.712;9.082;2023-02-22T13:53:46;96631.31;;;14.71;50.17
6668;BME280;3370;47.712;9.082;2023-02-22T13:56:14;96627.66;;;14.48;51.01
6668;BME280;3370;47.712;9.082;2023-02-22T13:58:54;96628.19;;;14.66;50.20
6668;BME280;3370;47.712;9.082;2023-02-22T14:01:47;96624.44;;;14.19;52.26
6668;BME280;3370;47.712;9.082;2023-02-22T14:09:49;96636.19;;;13.97;52.53
6668;BME280;3370;47.712;9.082;2023-02-22T14:18:03;96624.53;;;14.05;52.54
6668;BME280;3370;47.712;9.082;2023-02-22T14:20:37;96626.81;;;13.69;53.66
6668;BME280;3370;47.712;9.082;2023-02-22T14:23:32;96627.59;;;13.15;54.61
6668;BME280;3370;47.712;9.082;2023-02-22T14:26:27;96630.19;;;13.01;55.34
6668;BME280;3370;47.712;9.082;2023-02-22T14:29:02;96636.00;;;13.04;55.48
6668;BME280;3370;47.712;9.082;2023-02-22T14:34:40;96625.38;;;13.23;55.31
6668;BME280;3370;47.712;9.082;2023-02-22T14:40:03;96630.22;;;12.87;56.08
6668;BME280;3370;47.712;9.082;2023-02-22T14:45:36;96632.88;;;12.71;58.06
6668;BME280;3370;47.712;9.082;2023-02-22T14:48:33;96638.16;;;12.55;58.01
6668;BME280;3370;47.712;9.082;2023-02-22T14:51:33;96631.25;;;12.55;58.28
6668;BME280;3370;47.712;9.082;2023-02-22T14:54:24;96632.06;;;12.56;57.88
6668;BME280;3370;47.712;9.082;2023-02-22T14:57:13;96628.19;;;12.49;58.55
6668;BME280;3370;47.712;9.082;2023-02-22T15:00:13;96632.34;;;12.51;58.60
6668;BME280;3370;47.712;9.082;2023-02-22T15:02:48;96633.31;;;12.34;59.66
6668;BME280;3370;47.712;9.082;2023-02-22T15:05:17;96627.81;;;12.26;58.86
6668;BME280;3370;47.712;9.082;2023-02-22T15:07:53;96627.06;;;12.24;59.39
6668;BME280;3370;47.712;9.082;2023-02-22T15:10:43;96634.19;;;12.49;59.86
6668;BME280;3370;47.712;9.082;2023-02-22T15:13:20;96625.78;;;12.31;59.50
6668;BME280;3370;47.712;9.082;2023-02-22T15:16:01;96622.81;;;12.23;60.20
6668;BME280;3370;47.712;9.082;2023-02-22T15:18:42;96622.88;;;12.07;60.45
6668;BME280;3370;47.712;9.082;2023-02-22T15:21:18;96625.91;;;11.99;61.44
6668;BME280;3370;47.712;9.082;2023-02-22T15:23:55;96627.81;;;12.26;60.26
6668;BME280;3370;47.712;9.082;2023-02-22T15:26:32;96631.59;;;12.35;60.64
6668;BME280;3370;47.712;9.082;2023-02-22T15:29:20;96627.03;;;12.10;60.49
6668;BME280;3370;47.712;9.082;2023-02-22T15:31:48;96635.88;;;11.89;62.03
6668;BME280;3370;47.712;9.082;2023-02-22T15:36:45;96634.38;;;12.01;61.07
6668;BME280;3370;47.712;9.082;2023-02-22T15:39:38;96632.25;;;11.94;62.10
6668;BME280;3370;47.712;9.082;2023-02-22T15:42:13;96626.59;;;11.71;62.95
6668;BME280;3370;47.712;9.082;2023-02-22T15:44:50;96637.09;;;11.68;63.27
6668;BME280;3370;47.712;9.082;2023-02-22T15:47:23;96644.41;;;11.44;64.18
6668;BME280;3370;47.712;9.082;2023-02-22T15:50:16;96645.19;;;11.30;64.51
6668;BME280;3370;47.712;9.082;2023-02-22T15:55:38;96648.09;;;11.08;66.10
6668;BME280;3370;47.712;9.082;2023-02-22T16:01:04;96638.28;;;10.99;66.71
6668;BME280;3370;47.712;9.082;2023-02-22T16:03:45;96645.56;;;10.90;66.72
6668;BME280;3370;47.712;9.082;2023-02-22T16:09:21;96643.97;;;10.72;68.24